aviador You're here:

LFRL Decoded Metar

LANVEDOC in FRANCE
Report Time2017-10-20 12:00:00
UTC Time2017-10-20 12:22:51
Flight Rules mvfr MVFR
Wind190° at 15 kt
W.Decomp.*RWY 23: 12.0 kt HW 9 kt LCW
W.Rank190° ranks 8
Current wind is above 190° avg. (9.2)
Visibility9999 m
Phenomena:N/A
Clouds:Broken 028 Hf
Broken 035 Hf
Expected CloudBase > 2,400 ft AGL from Temp-Dew spread
Ceiling2,800 ft
Temp16°C (ISA +2)
Dew Point10°C (68% RH)
AAT10.7°C
QNH1011 hPa
Density Alt686 ft
Elevation269 ft
Report Wrong Elevation
Raw Report
METAR LFRL 201200Z AUTO 19015KT 9999 BKN028 BKN035 16/10 Q1011 BECMG
20015G25KT=

Extra information for LFRL:More info

Metar Taf Metar & Taf Last 4 Metars F.Rules Stats Wind Profile Meteogram Temp Stats Airport Information Weather charts Add Link Nearby VenuesMetar ALERT Operation Metar Decoded Social comments